sensor_id;sensor_type;location;lat;lon;timestamp;pressure;altitude;pressure_sealevel;temperature;humidity
63582;BME280;49727;51.078;17.066;2023-07-29T00:05:47;99510.66;;;16.64;74.53
63582;BME280;49727;51.078;17.066;2023-07-29T00:20:47;99520.50;;;16.70;74.50
63582;BME280;49727;51.078;17.066;2023-07-29T00:35:48;99512.97;;;16.60;75.04
63582;BME280;49727;51.078;17.066;2023-07-29T00:50:49;99533.28;;;16.56;75.16
63582;BME280;49727;51.078;17.066;2023-07-29T01:05:59;99529.47;;;16.64;75.48
63582;BME280;49727;51.078;17.066;2023-07-29T01:21:07;99517.66;;;16.65;75.61
63582;BME280;49727;51.078;17.066;2023-07-29T01:36:13;99528.41;;;16.65;75.85
63582;BME280;49727;51.078;17.066;2023-07-29T01:51:15;99521.50;;;16.57;75.77
63582;BME280;49727;51.078;17.066;2023-07-29T02:06:15;99538.38;;;16.46;75.97
63582;BME280;49727;51.078;17.066;2023-07-29T02:21:16;99533.16;;;16.32;75.67
63582;BME280;49727;51.078;17.066;2023-07-29T02:36:17;99519.63;;;16.20;76.06
63582;BME280;49727;51.078;17.066;2023-07-29T02:51:18;99520.22;;;16.04;76.23
63582;BME280;49727;51.078;17.066;2023-07-29T03:06:18;99530.78;;;15.80;76.49
63582;BME280;49727;51.078;17.066;2023-07-29T03:21:19;99535.09;;;15.56;76.95
63582;BME280;49727;51.078;17.066;2023-07-29T03:36:20;99542.06;;;15.64;77.48
63582;BME280;49727;51.078;17.066;2023-07-29T03:51:21;99535.72;;;15.83;77.61
63582;BME280;49727;51.078;17.066;2023-07-29T04:06:22;99558.34;;;15.94;77.31
63582;BME280;49727;51.078;17.066;2023-07-29T04:21:23;99557.31;;;16.14;77.85
63582;BME280;49727;51.078;17.066;2023-07-29T04:36:23;99564.72;;;16.37;77.30
63582;BME280;49727;51.078;17.066;2023-07-29T04:51:23;99555.53;;;16.63;76.82
63582;BME280;49727;51.078;17.066;2023-07-29T05:06:23;99557.06;;;17.08;76.88
63582;BME280;49727;51.078;17.066;2023-07-29T05:21:24;99558.16;;;17.73;76.50
63582;BME280;49727;51.078;17.066;2023-07-29T05:36:24;99576.59;;;18.88;75.85
63582;BME280;49727;51.078;17.066;2023-07-29T05:51:25;99573.78;;;19.91;74.43
63582;BME280;49727;51.078;17.066;2023-07-29T06:06:25;99577.38;;;20.98;72.35
63582;BME280;49727;51.078;17.066;2023-07-29T06:21:25;99572.09;;;22.05;70.42
63582;BME280;49727;51.078;17.066;2023-07-29T06:36:26;99582.41;;;23.20;66.81
63582;BME280;49727;51.078;17.066;2023-07-29T06:51:26;99578.06;;;24.16;64.48
63582;BME280;49727;51.078;17.066;2023-07-29T07:06:26;99553.78;;;25.46;60.50
63582;BME280;49727;51.078;17.066;2023-07-29T07:21:27;99561.53;;;26.70;56.70
63582;BME280;49727;51.078;17.066;2023-07-29T07:36:27;99560.06;;;27.16;53.38
63582;BME280;49727;51.078;17.066;2023-07-29T07:51:27;99559.69;;;27.75;49.76
63582;BME280;49727;51.078;17.066;2023-07-29T08:06:28;99552.81;;;28.52;48.66
63582;BME280;49727;51.078;17.066;2023-07-29T08:21:28;99544.59;;;28.24;45.88
63582;BME280;49727;51.078;17.066;2023-07-29T08:36:29;99517.00;;;28.34;45.97
63582;BME280;49727;51.078;17.066;2023-07-29T08:51:31;99496.56;;;29.05;44.56
63582;BME280;49727;51.078;17.066;2023-07-29T09:06:32;99492.91;;;28.59;42.69
63582;BME280;49727;51.078;17.066;2023-07-29T09:21:32;99498.41;;;27.90;43.62
63582;BME280;49727;51.078;17.066;2023-07-29T09:36:33;99494.88;;;28.45;44.04
63582;BME280;49727;51.078;17.066;2023-07-29T09:51:38;99462.41;;;29.11;42.34
63582;BME280;49727;51.078;17.066;2023-07-29T10:06:39;99474.94;;;29.80;40.18
63582;BME280;49727;51.078;17.066;2023-07-29T10:21:43;99481.09;;;30.35;38.98
63582;BME280;49727;51.078;17.066;2023-07-29T10:36:45;99452.09;;;29.62;40.12
63582;BME280;49727;51.078;17.066;2023-07-29T10:51:47;99432.09;;;30.02;39.74
63582;BME280;49727;51.078;17.066;2023-07-29T11:22:11;99404.97;;;30.35;37.94
63582;BME280;49727;51.078;17.066;2023-07-29T11:37:12;99381.59;;;29.40;38.55
63582;BME280;49727;51.078;17.066;2023-07-29T11:52:12;99375.09;;;30.34;37.42
63582;BME280;49727;51.078;17.066;2023-07-29T12:07:14;99370.19;;;29.87;37.30
63582;BME280;49727;51.078;17.066;2023-07-29T12:22:19;99368.41;;;29.91;35.77
63582;BME280;49727;51.078;17.066;2023-07-29T12:37:19;99357.06;;;29.84;36.30
63582;BME280;49727;51.078;17.066;2023-07-29T12:52:20;99340.59;;;29.84;36.01
63582;BME280;49727;51.078;17.066;2023-07-29T13:07:20;99326.88;;;29.26;36.87
63582;BME280;49727;51.078;17.066;2023-07-29T13:22:21;99319.47;;;29.35;37.57
63582;BME280;49727;51.078;17.066;2023-07-29T13:37:21;99313.19;;;29.35;36.76
63582;BME280;49727;51.078;17.066;2023-07-29T13:52:21;99299.06;;;29.19;37.38
63582;BME280;49727;51.078;17.066;2023-07-29T14:07:22;99280.00;;;29.14;37.82
63582;BME280;49727;51.078;17.066;2023-07-29T14:22:22;99275.31;;;27.92;39.28
63582;BME280;49727;51.078;17.066;2023-07-29T14:37:22;99237.63;;;27.25;41.43
63582;BME280;49727;51.078;17.066;2023-07-29T14:52:23;99225.94;;;26.77;42.93
63582;BME280;49727;51.078;17.066;2023-07-29T15:07:23;99234.13;;;26.30;43.74
63582;BME280;49727;51.078;17.066;2023-07-29T15:22:23;99234.03;;;26.35;44.12
63582;BME280;49727;51.078;17.066;2023-07-29T15:37:27;99243.34;;;26.34;44.40
63582;BME280;49727;51.078;17.066;2023-07-29T15:52:28;99246.38;;;25.76;45.75
63582;BME280;49727;51.078;17.066;2023-07-29T16:07:29;99250.91;;;25.42;46.69
63582;BME280;49727;51.078;17.066;2023-07-29T16:22:30;99263.88;;;25.50;46.52
63582;BME280;49727;51.078;17.066;2023-07-29T16:37:30;99265.72;;;25.07;47.63
63582;BME280;49727;51.078;17.066;2023-07-29T16:52:30;99254.28;;;24.51;48.01
63582;BME280;49727;51.078;17.066;2023-07-29T17:07:31;99262.66;;;24.25;48.09
63582;BME280;49727;51.078;17.066;2023-07-29T17:22:31;99239.84;;;23.71;49.06
63582;BME280;49727;51.078;17.066;2023-07-29T17:37:33;99258.06;;;23.76;50.16
63582;BME280;49727;51.078;17.066;2023-07-29T17:52:34;99270.84;;;23.70;49.94
63582;BME280;49727;51.078;17.066;2023-07-29T18:07:35;99291.97;;;23.18;51.20
63582;BME280;49727;51.078;17.066;2023-07-29T18:22:36;99326.78;;;22.80;52.30
63582;BME280;49727;51.078;17.066;2023-07-29T18:37:36;99327.03;;;22.42;53.29
63582;BME280;49727;51.078;17.066;2023-07-29T18:52:36;99323.94;;;22.03;53.72
63582;BME280;49727;51.078;17.066;2023-07-29T19:07:37;99337.09;;;21.63;54.56
63582;BME280;49727;51.078;17.066;2023-07-29T19:22:37;99354.00;;;21.38;56.23
63582;BME280;49727;51.078;17.066;2023-07-29T19:37:38;99385.16;;;21.40;57.14
63582;BME280;49727;51.078;17.066;2023-07-29T19:52:38;99415.38;;;21.59;58.22
63582;BME280;49727;51.078;17.066;2023-07-29T20:07:39;99394.53;;;21.65;58.28
63582;BME280;49727;51.078;17.066;2023-07-29T20:22:39;99407.00;;;21.61;58.70
63582;BME280;49727;51.078;17.066;2023-07-29T20:37:39;99446.75;;;21.50;59.01
63582;BME280;49727;51.078;17.066;2023-07-29T20:52:40;99445.66;;;20.81;61.23
63582;BME280;49727;51.078;17.066;2023-07-29T21:07:40;99443.44;;;20.06;62.74
63582;BME280;49727;51.078;17.066;2023-07-29T21:22:40;99466.97;;;19.16;65.77
63582;BME280;49727;51.078;17.066;2023-07-29T21:37:41;99469.16;;;18.44;68.23
63582;BME280;49727;51.078;17.066;2023-07-29T21:52:41;99472.06;;;18.02;70.17
63582;BME280;49727;51.078;17.066;2023-07-29T22:07:41;99478.16;;;17.85;71.09
63582;BME280;49727;51.078;17.066;2023-07-29T22:22:42;99475.94;;;17.58;72.01
63582;BME280;49727;51.078;17.066;2023-07-29T22:37:42;99480.56;;;17.28;72.34
63582;BME280;49727;51.078;17.066;2023-07-29T22:52:42;99486.94;;;16.91;73.33
63582;BME280;49727;51.078;17.066;2023-07-29T23:07:42;99484.34;;;16.66;73.78
63582;BME280;49727;51.078;17.066;2023-07-29T23:22:43;99489.38;;;16.62;74.68
63582;BME280;49727;51.078;17.066;2023-07-29T23:37:45;99484.44;;;16.59;74.99
63582;BME280;49727;51.078;17.066;2023-07-29T23:52:46;99491.69;;;16.40;75.17
